createdAt,value
2023-05-25T00:01:49.450Z,98539.56
2023-05-25T00:04:19.604Z,98530.34
2023-05-25T00:06:47.756Z,98531.72
2023-05-25T00:09:15.650Z,98527.66
2023-05-25T00:11:42.962Z,98538.38
2023-05-25T00:14:10.941Z,98541.28
2023-05-25T00:16:40.863Z,98534.22
2023-05-25T00:19:11.252Z,98544.16
2023-05-25T00:21:38.671Z,98546.78
2023-05-25T00:24:07.261Z,98550.03
2023-05-25T00:26:36.192Z,98540.44
2023-05-25T00:29:04.892Z,98542.25
2023-05-25T00:31:33.543Z,98552.44
2023-05-25T00:34:01.641Z,98547.94
2023-05-25T00:36:28.991Z,98549.69
2023-05-25T00:38:56.714Z,98553.66
2023-05-25T00:41:27.276Z,98549.47
2023-05-25T00:43:54.874Z,98551.25
2023-05-25T00:46:23.664Z,98549.59
2023-05-25T00:48:56.440Z,98547.34
2023-05-25T00:51:25.728Z,98541.25
2023-05-25T00:53:53.481Z,98543.75
2023-05-25T00:56:29.114Z,98544.00
2023-05-25T00:59:03.519Z,98544.13
2023-05-25T01:01:53.981Z,98545.56
2023-05-25T01:04:24.439Z,98545.56
2023-05-25T01:06:53.611Z,98555.00
2023-05-25T01:09:24.938Z,98552.22
2023-05-25T01:11:54.117Z,98548.66
2023-05-25T01:14:22.984Z,98553.47
2023-05-25T01:16:51.997Z,98550.84
2023-05-25T01:19:19.757Z,98545.44
2023-05-25T01:22:03.866Z,98549.88
2023-05-25T01:24:56.220Z,98544.38
2023-05-25T01:27:40.054Z,98553.56
2023-05-25T01:30:14.428Z,98544.72
2023-05-25T01:32:43.724Z,98547.22
2023-05-25T01:35:12.050Z,98556.81
2023-05-25T01:37:46.975Z,98549.13
2023-05-25T01:40:15.843Z,98560.50
2023-05-25T01:42:43.185Z,98544.13
2023-05-25T01:45:13.773Z,98542.91
2023-05-25T01:47:46.895Z,98550.50
2023-05-25T01:50:31.038Z,98555.41
2023-05-25T01:53:10.991Z,98559.22
2023-05-25T01:55:48.112Z,98550.88
2023-05-25T01:58:18.237Z,98551.44
2023-05-25T02:00:51.113Z,98551.31
2023-05-25T02:03:20.196Z,98549.66
2023-05-25T02:05:48.249Z,98557.19
2023-05-25T02:08:15.726Z,98545.72
2023-05-25T02:10:43.264Z,98542.97
2023-05-25T02:13:10.581Z,98541.06
2023-05-25T02:15:38.190Z,98545.47
2023-05-25T02:18:05.948Z,98542.84
2023-05-25T02:20:33.583Z,98549.91
2023-05-25T02:23:01.285Z,98548.13
2023-05-25T02:25:28.886Z,98545.63
2023-05-25T02:27:56.257Z,98543.69
2023-05-25T02:30:23.946Z,98545.97
2023-05-25T02:32:51.283Z,98547.94
2023-05-25T02:35:18.874Z,98550.84
2023-05-25T02:37:47.300Z,98545.34
2023-05-25T02:40:17.495Z,98550.41
2023-05-25T02:42:44.989Z,98548.50
2023-05-25T02:45:12.701Z,98547.53
2023-05-25T02:47:40.140Z,98553.50
2023-05-25T02:50:08.279Z,98550.41
2023-05-25T02:52:35.655Z,98556.06
2023-05-25T02:55:03.639Z,98555.69
2023-05-25T02:57:31.052Z,98539.66
2023-05-25T02:59:58.627Z,98538.22
2023-05-25T03:02:26.116Z,98532.84
2023-05-25T03:04:56.240Z,98536.31
2023-05-25T03:07:26.685Z,98540.59
2023-05-25T03:09:54.598Z,98537.38
2023-05-25T03:12:21.999Z,98535.56
2023-05-25T03:14:49.609Z,98541.66
2023-05-25T03:17:17.015Z,98546.72
2023-05-25T03:19:44.576Z,98540.84
2023-05-25T03:22:11.876Z,98536.28
2023-05-25T03:24:45.169Z,98539.75
2023-05-25T03:27:12.515Z,98537.50
2023-05-25T03:29:40.154Z,98537.38
2023-05-25T03:32:08.142Z,98536.41
2023-05-25T03:34:36.392Z,98537.97
2023-05-25T03:37:03.660Z,98538.81
2023-05-25T03:39:31.536Z,98541.31
2023-05-25T03:41:58.875Z,98549.78
2023-05-25T03:44:26.633Z,98554.22
2023-05-25T03:46:53.884Z,98557.69
2023-05-25T03:49:21.591Z,98557.41
2023-05-25T03:51:48.835Z,98559.13
2023-05-25T03:54:16.436Z,98561.97
2023-05-25T03:59:28.501Z,98575.03
2023-05-25T04:01:55.830Z,98571.31
2023-05-25T04:04:23.544Z,98568.81
2023-05-25T04:06:52.007Z,98574.56
2023-05-25T04:09:19.928Z,98576.25
2023-05-25T04:11:47.461Z,98576.69
2023-05-25T04:14:15.159Z,98579.09
2023-05-25T04:16:42.568Z,98579.59
2023-05-25T04:19:10.271Z,98578.16
2023-05-25T04:21:37.617Z,98585.34
2023-05-25T04:24:05.631Z,98593.69
2023-05-25T04:26:32.956Z,98588.56
2023-05-25T04:29:02.184Z,98590.94
2023-05-25T04:31:29.624Z,98595.38
2023-05-25T04:33:59.232Z,98587.97
2023-05-25T04:36:26.652Z,98592.84
2023-05-25T04:38:55.461Z,98594.91
2023-05-25T04:41:22.750Z,98604.59
2023-05-25T04:44:05.915Z,98590.22
2023-05-25T04:46:39.494Z,98590.84
2023-05-25T04:49:08.743Z,98594.16
2023-05-25T04:51:37.291Z,98597.50
2023-05-25T04:54:06.100Z,98597.88
2023-05-25T04:56:33.457Z,98600.25
2023-05-25T04:59:01.009Z,98602.16
2023-05-25T05:01:29.427Z,98595.84
2023-05-25T05:03:57.275Z,98602.75
2023-05-25T05:06:25.907Z,98608.38
2023-05-25T05:08:53.540Z,98606.91
2023-05-25T05:11:20.914Z,98611.59
2023-05-25T05:13:48.451Z,98612.66
2023-05-25T05:16:15.976Z,98616.59
2023-05-25T05:18:43.886Z,98619.72
2023-05-25T05:21:11.669Z,98618.53
2023-05-25T05:23:39.318Z,98624.53
2023-05-25T05:26:11.058Z,98621.63
2023-05-25T05:28:38.888Z,98629.88
2023-05-25T05:31:07.949Z,98630.97
2023-05-25T05:33:35.789Z,98622.59
2023-05-25T05:36:04.832Z,98634.06
2023-05-25T05:38:32.476Z,98629.28
2023-05-25T05:41:00.071Z,98634.59
2023-05-25T05:43:27.860Z,98631.59
2023-05-25T05:45:55.249Z,98631.91
2023-05-25T05:48:22.851Z,98631.69
2023-05-25T05:50:50.165Z,98630.25
2023-05-25T05:53:17.711Z,98639.81
2023-05-25T05:55:45.945Z,98637.31
2023-05-25T05:58:14.744Z,98641.13
2023-05-25T06:00:42.032Z,98632.84
2023-05-25T06:03:10.029Z,98641.69
2023-05-25T06:05:37.414Z,98645.31
2023-05-25T06:08:06.229Z,98649.84
2023-05-25T06:10:34.296Z,98649.50
2023-05-25T06:13:01.912Z,98647.72
2023-05-25T06:15:29.183Z,98656.09
2023-05-25T06:17:56.854Z,98664.25
2023-05-25T06:20:24.306Z,98662.75
2023-05-25T06:22:52.067Z,98664.81
2023-05-25T06:25:20.415Z,98660.97
2023-05-25T06:27:47.977Z,98665.19
2023-05-25T06:30:15.337Z,98672.34
2023-05-25T06:32:43.649Z,98671.28
2023-05-25T06:35:17.416Z,98671.97
2023-05-25T06:37:46.486Z,98666.72
2023-05-25T06:40:13.745Z,98662.63
2023-05-25T06:42:42.222Z,98669.50
2023-05-25T06:45:10.432Z,98670.22
2023-05-25T06:47:38.311Z,98673.31
2023-05-25T06:50:06.643Z,98676.41
2023-05-25T06:52:34.208Z,98675.94
2023-05-25T06:55:01.872Z,98683.84
2023-05-25T06:57:29.570Z,98684.22
2023-05-25T06:59:56.927Z,98685.78
2023-05-25T07:02:24.512Z,98684.56
2023-05-25T07:04:52.184Z,98687.44
2023-05-25T07:07:20.039Z,98680.78
2023-05-25T07:09:47.638Z,98681.31
2023-05-25T07:12:15.284Z,98688.53
2023-05-25T07:14:42.609Z,98695.31
2023-05-25T07:17:12.571Z,98689.09
2023-05-25T07:19:40.296Z,98693.31
2023-05-25T07:22:07.989Z,98694.72
2023-05-25T07:24:35.549Z,98698.31
2023-05-25T07:27:03.671Z,98697.47
2023-05-25T07:29:31.004Z,98702.38
2023-05-25T07:31:58.592Z,98700.13
2023-05-25T07:34:27.899Z,98704.06
2023-05-25T07:36:55.836Z,98705.97
2023-05-25T07:39:23.210Z,98713.50
2023-05-25T07:41:50.985Z,98710.88
2023-05-25T07:44:18.475Z,98707.84
2023-05-25T07:46:46.407Z,98709.78
2023-05-25T07:49:16.370Z,98707.72
2023-05-25T07:51:45.868Z,98717.06
2023-05-25T07:54:13.480Z,98706.28
2023-05-25T07:56:41.082Z,98712.25
2023-05-25T07:59:08.431Z,98709.81
2023-05-25T08:01:36.240Z,98712.41
2023-05-25T08:04:03.796Z,98720.75
2023-05-25T08:06:32.682Z,98717.72
2023-05-25T08:08:59.975Z,98710.28
2023-05-25T08:11:27.868Z,98716.72
2023-05-25T08:13:55.459Z,98712.84
2023-05-25T08:16:23.295Z,98714.28
2023-05-25T08:18:50.742Z,98712.06
2023-05-25T08:21:18.901Z,98718.78
2023-05-25T08:23:46.464Z,98707.72
2023-05-25T08:26:34.152Z,98705.84
2023-05-25T08:29:02.528Z,98705.91
2023-05-25T08:31:32.972Z,98713.59
2023-05-25T08:34:01.774Z,98718.13
2023-05-25T08:36:30.029Z,98718.66
2023-05-25T08:38:57.530Z,98707.03
2023-05-25T08:41:26.089Z,98714.09
2023-05-25T08:43:54.065Z,98710.63
2023-05-25T08:46:31.504Z,98718.28
2023-05-25T08:49:08.732Z,98709.13
2023-05-25T08:51:41.689Z,98717.13
2023-05-25T08:54:13.022Z,98721.41
2023-05-25T08:57:13.181Z,98723.34
2023-05-25T08:59:58.660Z,98722.78
2023-05-25T09:02:51.423Z,98724.97
2023-05-25T09:05:19.891Z,98722.19
2023-05-25T09:07:50.029Z,98716.72
2023-05-25T09:10:18.054Z,98716.06
2023-05-25T09:12:46.754Z,98718.34
2023-05-25T09:15:14.353Z,98717.28
2023-05-25T09:17:42.206Z,98721.38
2023-05-25T09:20:14.066Z,98723.13
2023-05-25T09:22:42.522Z,98724.72
2023-05-25T09:25:11.876Z,98718.22
2023-05-25T09:27:39.784Z,98721.03
2023-05-25T09:30:08.023Z,98723.38
2023-05-25T09:32:36.486Z,98724.06
2023-05-25T09:35:12.899Z,98726.44
2023-05-25T09:37:44.768Z,98725.22
2023-05-25T09:40:13.122Z,98732.16
2023-05-25T09:42:42.399Z,98730.34
2023-05-25T09:45:10.228Z,98723.09
2023-05-25T09:47:38.496Z,98724.94
2023-05-25T09:50:07.868Z,98727.41
2023-05-25T09:52:36.826Z,98735.03
2023-05-25T09:55:04.606Z,98732.16
2023-05-25T09:57:32.220Z,98729.66
2023-05-25T10:00:08.816Z,98727.78
2023-05-25T10:02:37.572Z,98731.84
2023-05-25T10:05:07.580Z,98733.09
2023-05-25T10:07:40.401Z,98727.72
2023-05-25T10:10:10.408Z,98733.06
2023-05-25T10:12:54.140Z,98730.69
2023-05-25T10:15:23.142Z,98727.06
2023-05-25T10:17:55.879Z,98724.66
2023-05-25T10:20:27.470Z,98723.00
2023-05-25T10:23:17.590Z,98719.75
2023-05-25T10:25:48.847Z,98721.19
2023-05-25T10:28:37.525Z,98727.00
2023-05-25T10:31:08.832Z,98728.66
2023-05-25T10:33:37.692Z,98728.75
2023-05-25T10:36:11.293Z,98739.03
2023-05-25T10:38:44.703Z,98730.84
2023-05-25T10:41:12.378Z,98732.34
2023-05-25T10:43:41.391Z,98738.19
2023-05-25T10:46:09.164Z,98736.84
2023-05-25T10:48:48.522Z,98732.16
2023-05-25T10:51:19.049Z,98730.47
2023-05-25T10:53:59.072Z,98732.16
2023-05-25T10:56:27.922Z,98733.41
2023-05-25T10:58:56.945Z,98735.00
2023-05-25T11:01:25.460Z,98731.09
2023-05-25T11:04:16.245Z,98732.91
2023-05-25T11:06:46.550Z,98732.44
2023-05-25T11:09:31.775Z,98726.72
2023-05-25T11:11:59.939Z,98730.13
2023-05-25T11:14:30.407Z,98722.44
2023-05-25T11:17:22.476Z,98712.09
2023-05-25T11:19:56.451Z,98718.56
2023-05-25T11:22:37.677Z,98720.91
2023-05-25T11:25:43.018Z,98718.94
2023-05-25T11:28:12.084Z,98720.63
2023-05-25T11:30:43.190Z,98718.13
2023-05-25T11:33:11.299Z,98719.50
2023-05-25T11:35:39.098Z,98716.19
2023-05-25T11:38:08.485Z,98712.69
2023-05-25T11:40:39.324Z,98714.34
2023-05-25T11:43:12.835Z,98713.66
2023-05-25T11:45:41.594Z,98716.44
2023-05-25T11:48:14.977Z,98714.59
2023-05-25T11:50:42.647Z,98717.25
2023-05-25T11:53:11.333Z,98721.44
2023-05-25T11:55:52.097Z,98714.91
2023-05-25T11:58:21.170Z,98711.72
2023-05-25T12:00:48.768Z,98717.28
2023-05-25T12:03:32.180Z,98711.16
2023-05-25T12:05:59.982Z,98706.13
2023-05-25T12:08:35.987Z,98713.78
2023-05-25T12:11:04.089Z,98716.41
2023-05-25T12:13:31.893Z,98703.81
2023-05-25T12:16:00.485Z,98700.75
2023-05-25T12:18:30.997Z,98701.06
2023-05-25T12:20:58.847Z,98697.41
2023-05-25T12:23:26.541Z,98701.81
2023-05-25T12:26:12.460Z,98692.28
2023-05-25T12:28:41.363Z,98696.41
2023-05-25T12:31:30.241Z,98696.69
2023-05-25T12:34:13.007Z,98698.75
2023-05-25T12:36:40.701Z,98694.97
2023-05-25T12:39:09.970Z,98695.00
2023-05-25T12:41:47.893Z,98684.78
2023-05-25T12:44:34.182Z,98689.69
2023-05-25T12:47:16.208Z,98698.78
2023-05-25T12:49:45.578Z,98699.69
2023-05-25T12:52:37.415Z,98681.66
2023-05-25T12:55:31.335Z,98683.47
2023-05-25T12:58:07.029Z,98678.59
2023-05-25T13:00:39.671Z,98680.47
2023-05-25T13:03:08.448Z,98690.25
2023-05-25T13:05:38.223Z,98687.53
2023-05-25T13:08:07.934Z,98688.00
2023-05-25T13:10:38.939Z,98686.16
2023-05-25T13:13:06.747Z,98691.19
2023-05-25T13:15:34.365Z,98684.22
2023-05-25T13:18:02.132Z,98682.50
2023-05-25T13:20:30.740Z,98680.97
2023-05-25T13:22:58.934Z,98673.47
2023-05-25T13:25:28.250Z,98680.31
2023-05-25T13:27:58.284Z,98668.59
2023-05-25T13:30:26.481Z,98670.88
2023-05-25T13:32:54.470Z,98668.63
2023-05-25T13:35:41.814Z,98672.50
2023-05-25T13:38:10.720Z,98663.19
2023-05-25T13:40:38.282Z,98669.78
2023-05-25T13:43:06.204Z,98670.03
2023-05-25T13:45:33.647Z,98664.56
2023-05-25T13:48:01.388Z,98665.81
2023-05-25T13:50:28.800Z,98666.78
2023-05-25T13:52:57.052Z,98673.06
2023-05-25T13:55:24.730Z,98669.88
2023-05-25T13:57:52.375Z,98662.94
2023-05-25T14:00:20.102Z,98663.22
2023-05-25T14:02:48.106Z,98667.16
2023-05-25T14:05:15.547Z,98656.31
2023-05-25T14:07:44.626Z,98653.78
2023-05-25T14:10:12.162Z,98663.69
2023-05-25T14:12:41.166Z,98652.69
2023-05-25T14:15:09.433Z,98655.59
2023-05-25T14:17:37.156Z,98652.25
2023-05-25T14:20:05.351Z,98657.13
2023-05-25T14:22:33.836Z,98656.41
2023-05-25T14:25:01.226Z,98650.16
2023-05-25T14:27:28.978Z,98648.22
2023-05-25T14:29:56.308Z,98650.41
2023-05-25T14:32:24.115Z,98651.81
2023-05-25T14:34:51.496Z,98647.50
2023-05-25T14:37:19.331Z,98644.03
2023-05-25T14:39:46.602Z,98645.94
2023-05-25T14:42:14.366Z,98649.19
2023-05-25T14:44:41.626Z,98637.06
2023-05-25T14:47:09.507Z,98647.28
2023-05-25T14:49:36.936Z,98637.53
2023-05-25T14:52:04.707Z,98642.41
2023-05-25T14:54:32.186Z,98651.84
2023-05-25T14:56:59.762Z,98641.00
2023-05-25T14:59:27.072Z,98633.47
2023-05-25T15:01:54.843Z,98641.00
2023-05-25T15:04:22.408Z,98641.25
2023-05-25T15:06:50.156Z,98643.06
2023-05-25T15:09:19.469Z,98640.72
2023-05-25T15:11:47.205Z,98637.94
2023-05-25T15:14:14.877Z,98643.22
2023-05-25T15:16:43.543Z,98635.56
2023-05-25T15:19:13.311Z,98632.91
2023-05-25T15:21:42.904Z,98635.72
2023-05-25T15:24:10.848Z,98625.28
2023-05-25T15:26:38.604Z,98620.81
2023-05-25T15:29:05.980Z,98629.59
2023-05-25T15:31:33.742Z,98630.47
2023-05-25T15:34:01.170Z,98632.81
2023-05-25T15:36:28.874Z,98620.41
2023-05-25T15:38:56.280Z,98622.38
2023-05-25T15:41:23.958Z,98618.06
2023-05-25T15:43:58.091Z,98626.41
2023-05-25T15:46:26.341Z,98620.97
2023-05-25T15:48:54.594Z,98624.88
2023-05-25T15:51:23.375Z,98621.78
2023-05-25T15:53:50.941Z,98619.03
2023-05-25T15:56:18.553Z,98625.00
2023-05-25T15:58:49.014Z,98625.00
2023-05-25T16:01:16.888Z,98633.09
2023-05-25T16:03:50.787Z,98622.09
2023-05-25T16:06:18.339Z,98615.81
2023-05-25T16:08:46.070Z,98621.94
2023-05-25T16:11:13.702Z,98624.56
2023-05-25T16:13:41.090Z,98624.84
2023-05-25T16:16:09.764Z,98623.31
2023-05-25T16:18:37.221Z,98622.03
2023-05-25T16:21:05.165Z,98616.91
2023-05-25T16:23:32.454Z,98614.81
2023-05-25T16:26:00.149Z,98615.91
2023-05-25T16:28:27.578Z,98617.31
2023-05-25T16:30:55.920Z,98618.56
2023-05-25T16:33:23.392Z,98618.75
2023-05-25T16:35:53.748Z,98624.31
2023-05-25T16:38:21.058Z,98614.81
2023-05-25T16:40:48.640Z,98617.06
2023-05-25T16:43:15.991Z,98615.53
2023-05-25T16:45:44.030Z,98610.25
2023-05-25T16:48:11.579Z,98619.44
2023-05-25T16:50:39.306Z,98610.13
2023-05-25T16:53:06.905Z,98607.59
2023-05-25T16:55:34.552Z,98611.94
2023-05-25T16:58:01.841Z,98618.63
2023-05-25T17:00:29.450Z,98618.78
2023-05-25T17:02:56.933Z,98613.19
2023-05-25T17:05:24.749Z,98614.72
2023-05-25T17:07:52.167Z,98612.66
2023-05-25T17:10:19.901Z,98617.22
2023-05-25T17:12:47.265Z,98615.53
2023-05-25T17:15:16.320Z,98605.03
2023-05-25T17:17:44.189Z,98606.72
2023-05-25T17:20:12.112Z,98617.97
2023-05-25T17:22:39.589Z,98619.50
2023-05-25T17:25:11.764Z,98616.19
2023-05-25T17:27:39.176Z,98614.38
2023-05-25T17:30:07.824Z,98616.88
2023-05-25T17:32:35.168Z,98612.56
2023-05-25T17:35:04.249Z,98606.88
2023-05-25T17:37:31.507Z,98598.81
2023-05-25T17:39:59.499Z,98611.56
2023-05-25T17:42:27.071Z,98613.53
2023-05-25T17:44:54.735Z,98605.41
2023-05-25T17:47:22.585Z,98611.84
2023-05-25T17:49:50.589Z,98616.28
2023-05-25T17:52:18.025Z,98612.53
2023-05-25T17:54:45.868Z,98622.25
2023-05-25T17:57:13.361Z,98621.94
2023-05-25T17:59:41.671Z,98619.91
2023-05-25T18:02:09.859Z,98616.97
2023-05-25T18:04:37.604Z,98613.19
2023-05-25T18:07:05.208Z,98621.25
2023-05-25T18:09:32.925Z,98621.50
2023-05-25T18:12:01.138Z,98612.16
2023-05-25T18:14:32.096Z,98614.28
2023-05-25T18:16:59.490Z,98614.28
2023-05-25T18:19:27.129Z,98616.03
2023-05-25T18:21:54.449Z,98612.97
2023-05-25T18:24:22.016Z,98619.22
2023-05-25T18:26:49.528Z,98620.69
2023-05-25T18:29:17.294Z,98624.78
2023-05-25T18:31:48.814Z,98618.94
2023-05-25T18:34:16.811Z,98621.03
2023-05-25T18:36:44.178Z,98626.88
2023-05-25T18:39:12.286Z,98626.25
2023-05-25T18:41:39.895Z,98624.72
2023-05-25T18:44:08.165Z,98623.47
2023-05-25T18:46:37.584Z,98630.28
2023-05-25T18:49:05.410Z,98633.19
2023-05-25T18:51:34.040Z,98639.44
2023-05-25T18:54:01.737Z,98633.22
2023-05-25T18:56:29.124Z,98643.75
2023-05-25T18:58:57.200Z,98635.34
2023-05-25T19:01:27.945Z,98640.34
2023-05-25T19:03:58.325Z,98643.31
2023-05-25T19:06:27.398Z,98642.84
2023-05-25T19:08:55.467Z,98646.13
2023-05-25T19:11:22.848Z,98642.28
2023-05-25T19:13:50.545Z,98648.66
2023-05-25T19:16:18.092Z,98642.63
2023-05-25T19:18:45.747Z,98642.09
2023-05-25T19:21:13.712Z,98645.75
2023-05-25T19:23:41.892Z,98637.00
2023-05-25T19:26:09.395Z,98645.63
2023-05-25T19:28:37.093Z,98637.19
2023-05-25T19:31:04.599Z,98645.41
2023-05-25T19:33:32.254Z,98639.31
2023-05-25T19:35:59.655Z,98646.78
2023-05-25T19:38:34.212Z,98650.63
2023-05-25T19:41:08.165Z,98649.66
2023-05-25T19:43:36.301Z,98650.88
2023-05-25T19:46:04.184Z,98640.84
2023-05-25T19:48:31.920Z,98637.31
2023-05-25T19:51:01.031Z,98646.31
2023-05-25T19:53:30.091Z,98641.75
2023-05-25T19:55:57.799Z,98636.34
2023-05-25T19:58:25.350Z,98634.16
2023-05-25T20:00:53.006Z,98632.72
2023-05-25T20:03:21.186Z,98635.38
2023-05-25T20:05:48.697Z,98629.88
2023-05-25T20:08:16.355Z,98624.47
2023-05-25T20:10:45.192Z,98628.56
2023-05-25T20:13:12.869Z,98628.84
2023-05-25T20:15:40.244Z,98626.81
2023-05-25T20:18:07.965Z,98626.56
2023-05-25T20:20:35.738Z,98619.34
2023-05-25T20:23:03.543Z,98627.25
2023-05-25T20:25:30.928Z,98634.72
2023-05-25T20:27:58.525Z,98632.53
2023-05-25T20:30:25.829Z,98637.78
2023-05-25T20:32:53.666Z,98645.25
2023-05-25T20:35:21.007Z,98636.97
2023-05-25T20:37:48.677Z,98643.91
2023-05-25T20:40:16.041Z,98636.81
2023-05-25T20:42:43.748Z,98652.41
2023-05-25T20:45:11.119Z,98647.28
2023-05-25T20:47:41.601Z,98642.28
2023-05-25T20:50:09.320Z,98646.41
2023-05-25T20:52:37.001Z,98640.28
2023-05-25T20:55:04.797Z,98637.56
2023-05-25T20:57:32.696Z,98642.00
2023-05-25T21:00:00.063Z,98642.81
2023-05-25T21:02:28.882Z,98640.81
2023-05-25T21:04:56.540Z,98648.94
2023-05-25T21:07:24.156Z,98636.81
2023-05-25T21:09:51.667Z,98638.69
2023-05-25T21:12:19.455Z,98648.66
2023-05-25T21:14:46.843Z,98642.91
2023-05-25T21:17:15.048Z,98644.94
2023-05-25T21:19:42.424Z,98650.22
2023-05-25T21:22:11.437Z,98641.88
2023-05-25T21:24:39.144Z,98650.50
2023-05-25T21:27:06.899Z,98653.47
2023-05-25T21:29:34.226Z,98653.50
2023-05-25T21:32:01.943Z,98654.94
2023-05-25T21:34:29.341Z,98658.88
2023-05-25T21:36:57.423Z,98655.34
2023-05-25T21:39:25.156Z,98660.75
2023-05-25T21:41:53.707Z,98649.97
2023-05-25T21:44:22.945Z,98662.31
2023-05-25T21:46:50.672Z,98657.34
2023-05-25T21:49:18.128Z,98657.13
2023-05-25T21:51:45.791Z,98657.00
2023-05-25T21:54:13.189Z,98653.59
2023-05-25T21:56:40.915Z,98647.91
2023-05-25T21:59:08.153Z,98654.59
2023-05-25T22:01:35.913Z,98648.31
2023-05-25T22:04:03.392Z,98643.31
2023-05-25T22:06:31.032Z,98649.06
2023-05-25T22:08:59.104Z,98646.91
2023-05-25T22:11:26.828Z,98650.72
2023-05-25T22:13:54.173Z,98638.69
2023-05-25T22:16:22.073Z,98649.84
2023-05-25T22:18:49.612Z,98650.69
2023-05-25T22:21:17.944Z,98649.72
2023-05-25T22:23:45.271Z,98646.38
2023-05-25T22:26:12.823Z,98645.16
2023-05-25T22:28:40.219Z,98653.94
2023-05-25T22:31:07.957Z,98651.16
2023-05-25T22:33:35.420Z,98654.69
2023-05-25T22:36:03.098Z,98649.28
2023-05-25T22:38:31.727Z,98647.31
2023-05-25T22:40:59.317Z,98653.06
2023-05-25T22:43:27.161Z,98648.66
2023-05-25T22:45:54.812Z,98644.31
2023-05-25T22:48:22.111Z,98645.47
2023-05-25T22:50:50.020Z,98640.47
2023-05-25T22:53:17.467Z,98644.50
2023-05-25T22:55:47.272Z,98639.75
2023-05-25T22:58:14.933Z,98643.50
2023-05-25T23:00:42.622Z,98644.47
2023-05-25T23:03:10.152Z,98642.19
2023-05-25T23:05:37.975Z,98639.81
2023-05-25T23:08:05.383Z,98653.69
2023-05-25T23:10:32.954Z,98647.81
2023-05-25T23:13:00.605Z,98645.72
2023-05-25T23:15:28.629Z,98652.00
2023-05-25T23:17:56.330Z,98646.75
2023-05-25T23:20:24.071Z,98647.19
2023-05-25T23:22:51.474Z,98648.75
2023-05-25T23:25:19.253Z,98646.22
2023-05-25T23:27:46.935Z,98646.47
2023-05-25T23:30:15.437Z,98648.91
2023-05-25T23:32:44.041Z,98639.06
2023-05-25T23:35:11.760Z,98642.66
2023-05-25T23:37:39.170Z,98647.47
2023-05-25T23:40:08.169Z,98640.38
2023-05-25T23:42:40.197Z,98642.91
2023-05-25T23:45:08.783Z,98641.22
2023-05-25T23:47:36.305Z,98638.09
2023-05-25T23:50:04.377Z,98629.75
2023-05-25T23:52:31.614Z,98634.91
2023-05-25T23:54:59.347Z,98634.75
2023-05-25T23:57:26.636Z,98642.66
2023-05-25T23:59:54.265Z,98642.44
